South Bend, IN (46628)

1:39 PM EDT on September 25, 2016 (GMT -0400)
South Bend Regional | | Change Station

Elev 774 ft 41.71 °N, 86.32 °W | Updated 45 minutes ago

Partly Cloudy
Partly Cloudy
75 °F
Feels Like 75 °F
N
9
Wind Variable Wind from SE

Today
High -- | Low -- °F
--% Chance of Precip.
Yesterday
High -- | Low -- °F
Precip. -- in
Pressure 30.09 in
Visibility 10.0 miles
Clouds Few 5500 ft
Dew Point 59 °F
Humidity 57%
Rainfall 0.00 in
Snow Depth Not available.
7:36 AM 7:36 PM
Waning Crescent, 26% visible
METAR KSBN 251654Z 13008KT 10SM FEW055 24/15 A3010 RMK AO2 SLP189 T02390150
Pressure 30.09 in
Visibility 10.0 miles
Clouds Few 5500 ft
Dew Point 59 °F
Humidity 57%
Rainfall 0.00 in
Snow Depth Not available.
7:36 AM 7:36 PM
Waning Crescent, 26% visible
METAR KSBN 251654Z 13008KT 10SM FEW055 24/15 A3010 RMK AO2 SLP189 T02390150

10-Day Weather Forecast

Almanac

Astronomy

Sep. 25, 2016 Rise Set
Actual Time
Civil Twilight
Nautical Twilight
Astronomical Twilight
Moon
Length of Visible Light
Length of Day
Tomorrow will be .
, % of the Moon is Illuminated

Today's Extremes

State Highs State Lows

Community

WunderPhotos

Upload Photos

1,941,674 photos uploaded!

WunderBlog® & News

Nearby

Air Quality

  Air Quality AQ Index Pollutant
Not available.

Snow Depth

Station Depth Elevation

Earthquake Activity

City Distance Mag. Time & Date
Minimum magnitude displayed is 2.5.

Coastal Water Temperatures

Place Temperature

Stations

Nearby Weather Stations

Station Location Temp. Windchill Dew Point Humidity Wind Precip. Elev Updated Type
                   

Watches & Warnings

There are currently no watches in effect.